createdAt,value
2018-03-21T00:00:40.593Z,0
2018-03-21T00:01:43.377Z,0
2018-03-21T00:02:45.744Z,0
2018-03-21T00:03:48.112Z,0
2018-03-21T00:04:50.740Z,0
2018-03-21T00:05:53.100Z,0
2018-03-21T00:06:55.466Z,0
2018-03-21T00:07:58.107Z,0
2018-03-21T00:09:00.494Z,0
2018-03-21T00:10:03.421Z,0
2018-03-21T00:11:05.797Z,0
2018-03-21T00:12:08.161Z,0
2018-03-21T00:13:10.531Z,0
2018-03-21T00:14:12.886Z,0
2018-03-21T00:15:15.264Z,0
2018-03-21T00:16:17.911Z,0
2018-03-21T00:17:20.275Z,0
2018-03-21T00:18:23.046Z,0
2018-03-21T00:19:25.409Z,0
2018-03-21T00:20:27.811Z,0
2018-03-21T00:21:30.325Z,0
2018-03-21T00:22:32.682Z,0
2018-03-21T00:23:35.258Z,0
2018-03-21T00:24:37.634Z,0
2018-03-21T00:25:40.000Z,0
2018-03-21T00:26:42.523Z,0
2018-03-21T00:27:44.882Z,0
2018-03-21T00:28:47.523Z,0
2018-03-21T00:29:50.459Z,0
2018-03-21T00:30:53.126Z,0
2018-03-21T00:31:55.495Z,0
2018-03-21T00:32:58.167Z,0
2018-03-21T00:34:00.542Z,0
2018-03-21T00:35:02.910Z,0
2018-03-21T00:36:05.596Z,0
2018-03-21T00:37:08.896Z,0
2018-03-21T00:38:11.264Z,0
2018-03-21T00:39:13.915Z,0
2018-03-21T00:40:16.599Z,0
2018-03-21T00:41:19.251Z,0
2018-03-21T00:42:21.609Z,0
2018-03-21T00:43:23.971Z,0
2018-03-21T00:44:26.629Z,0
2018-03-21T00:45:29.013Z,0
2018-03-21T00:46:31.655Z,0
2018-03-21T00:47:34.028Z,0
2018-03-21T00:48:36.402Z,0
2018-03-21T00:49:38.767Z,0
2018-03-21T00:50:41.137Z,0
2018-03-21T00:51:43.507Z,0
2018-03-21T00:52:45.877Z,0
2018-03-21T00:53:48.250Z,0
2018-03-21T00:54:51.182Z,0
2018-03-21T00:55:53.547Z,0
2018-03-21T00:56:55.906Z,0
2018-03-21T00:57:58.275Z,0
2018-03-21T00:59:00.650Z,0
2018-03-21T01:00:03.007Z,0
2018-03-21T01:01:05.381Z,0
2018-03-21T01:02:07.747Z,0
2018-03-21T01:03:10.119Z,0
2018-03-21T01:04:12.497Z,0
2018-03-21T01:05:14.854Z,0
2018-03-21T01:06:17.219Z,0
2018-03-21T01:07:19.604Z,0
2018-03-21T01:08:21.958Z,0
2018-03-21T01:09:24.331Z,0
2018-03-21T01:10:26.711Z,0
2018-03-21T01:11:29.068Z,0
2018-03-21T01:12:31.437Z,0
2018-03-21T01:13:33.804Z,0
2018-03-21T01:14:36.184Z,0
2018-03-21T01:15:38.553Z,0
2018-03-21T01:16:40.919Z,0
2018-03-21T01:17:43.557Z,0
2018-03-21T01:18:45.933Z,0
2018-03-21T01:19:48.303Z,0
2018-03-21T01:20:50.656Z,0
2018-03-21T01:21:53.032Z,0
2018-03-21T01:22:55.525Z,0
2018-03-21T01:23:57.873Z,0
2018-03-21T01:25:00.237Z,0
2018-03-21T01:26:02.890Z,0
2018-03-21T01:27:05.299Z,0
2018-03-21T01:28:07.666Z,0
2018-03-21T01:29:10.310Z,0
2018-03-21T01:30:12.684Z,0
2018-03-21T01:31:15.053Z,0
2018-03-21T01:32:17.712Z,0
2018-03-21T01:33:20.568Z,0
2018-03-21T01:34:22.936Z,0
2018-03-21T01:35:25.306Z,0
2018-03-21T01:36:27.769Z,0
2018-03-21T01:37:30.138Z,0
2018-03-21T01:38:32.632Z,0
2018-03-21T01:39:34.989Z,0
2018-03-21T01:40:37.637Z,0
2018-03-21T01:41:40.010Z,0
2018-03-21T01:42:42.401Z,0
2018-03-21T01:43:44.771Z,0
2018-03-21T01:44:47.171Z,0
2018-03-21T01:45:49.528Z,0
2018-03-21T01:46:51.901Z,0
2018-03-21T01:47:54.263Z,0
2018-03-21T01:48:56.650Z,0
2018-03-21T01:49:59.308Z,0
2018-03-21T01:51:01.966Z,0
2018-03-21T01:52:04.620Z,0
2018-03-21T01:53:07.295Z,0
2018-03-21T01:54:09.945Z,0
2018-03-21T01:55:12.311Z,0
2018-03-21T01:56:14.678Z,0
2018-03-21T01:57:17.058Z,0
2018-03-21T01:58:19.693Z,0
2018-03-21T01:59:22.063Z,0
2018-03-21T02:00:24.716Z,0
2018-03-21T02:01:27.086Z,0
2018-03-21T02:02:29.752Z,0
2018-03-21T02:03:32.108Z,0
2018-03-21T02:04:34.480Z,0
2018-03-21T02:05:36.850Z,0
2018-03-21T02:06:39.235Z,0
2018-03-21T02:07:41.972Z,0
2018-03-21T02:08:44.357Z,0
2018-03-21T02:09:46.721Z,0
2018-03-21T02:10:49.489Z,0
2018-03-21T02:11:52.148Z,0
2018-03-21T02:12:54.521Z,0
2018-03-21T02:13:56.893Z,0
2018-03-21T02:14:59.263Z,0
2018-03-21T02:16:01.901Z,0
2018-03-21T02:17:04.552Z,0
2018-03-21T02:18:06.926Z,0
2018-03-21T02:19:09.294Z,0
2018-03-21T02:20:11.654Z,0
2018-03-21T02:21:14.025Z,0
2018-03-21T02:22:16.393Z,0
2018-03-21T02:23:19.041Z,0
2018-03-21T02:24:21.400Z,0
2018-03-21T02:25:23.778Z,0
2018-03-21T02:26:26.137Z,0
2018-03-21T02:27:28.778Z,0
2018-03-21T02:28:31.144Z,0
2018-03-21T02:29:33.506Z,0
2018-03-21T02:30:35.863Z,0
2018-03-21T02:31:38.887Z,0
2018-03-21T02:32:41.242Z,0
2018-03-21T02:33:43.599Z,0
2018-03-21T02:34:46.637Z,0
2018-03-21T02:35:49.006Z,0
2018-03-21T02:36:51.371Z,0
2018-03-21T02:37:53.739Z,0
2018-03-21T02:38:56.102Z,0
2018-03-21T02:39:58.729Z,0
2018-03-21T02:41:01.104Z,0
2018-03-21T02:42:03.732Z,0
2018-03-21T02:43:06.478Z,0
2018-03-21T02:44:08.840Z,0
2018-03-21T02:45:11.202Z,0
2018-03-21T02:46:14.218Z,0
2018-03-21T02:47:16.574Z,0
2018-03-21T02:48:18.973Z,0
2018-03-21T02:49:21.492Z,0
2018-03-21T02:50:23.851Z,0
2018-03-21T02:51:26.227Z,0
2018-03-21T02:52:28.678Z,0
2018-03-21T02:53:31.036Z,0
2018-03-21T02:54:33.561Z,0
2018-03-21T02:55:35.920Z,0
2018-03-21T02:56:38.682Z,0
2018-03-21T02:57:42.060Z,0
2018-03-21T02:58:44.414Z,0
2018-03-21T02:59:47.852Z,0
2018-03-21T03:00:50.687Z,0
2018-03-21T03:01:53.647Z,0
2018-03-21T03:02:56.299Z,0
2018-03-21T03:03:58.980Z,0
2018-03-21T03:05:01.663Z,0
2018-03-21T03:06:04.032Z,0
2018-03-21T03:07:06.973Z,0
2018-03-21T03:08:09.970Z,0
2018-03-21T03:09:12.360Z,0
2018-03-21T03:10:14.863Z,0
2018-03-21T03:11:17.961Z,0
2018-03-21T03:12:20.632Z,0
2018-03-21T03:13:23.746Z,0
2018-03-21T03:14:26.284Z,0
2018-03-21T03:15:29.858Z,0
2018-03-21T03:16:32.805Z,0
2018-03-21T03:17:35.663Z,0
2018-03-21T03:18:38.745Z,0
2018-03-21T03:19:41.711Z,0
2018-03-21T03:20:44.089Z,0
2018-03-21T03:21:46.732Z,0
2018-03-21T03:22:49.084Z,0
2018-03-21T03:23:51.454Z,0
2018-03-21T03:24:53.812Z,0
2018-03-21T03:25:56.184Z,0
2018-03-21T03:26:58.551Z,0
2018-03-21T03:28:00.927Z,0
2018-03-21T03:29:03.852Z,0
2018-03-21T03:30:06.512Z,0
2018-03-21T03:31:09.192Z,0
2018-03-21T03:32:11.874Z,0
2018-03-21T03:33:14.252Z,0
2018-03-21T03:34:16.915Z,0
2018-03-21T03:35:19.273Z,0
2018-03-21T03:36:21.642Z,0
2018-03-21T03:37:24.001Z,0
2018-03-21T03:38:26.650Z,0
2018-03-21T03:39:29.016Z,0
2018-03-21T03:40:31.668Z,0
2018-03-21T03:41:34.028Z,0
2018-03-21T03:42:36.397Z,0
2018-03-21T03:43:38.756Z,0
2018-03-21T03:44:41.132Z,0
2018-03-21T03:45:43.501Z,0
2018-03-21T03:46:45.868Z,0
2018-03-21T03:47:48.224Z,0
2018-03-21T03:48:50.894Z,0
2018-03-21T03:49:53.256Z,0
2018-03-21T03:50:55.622Z,0
2018-03-21T03:51:57.989Z,0
2018-03-21T03:53:00.358Z,0
2018-03-21T03:54:03.284Z,0
2018-03-21T03:55:05.652Z,0
2018-03-21T03:56:08.026Z,0
2018-03-21T03:57:10.394Z,0
2018-03-21T03:58:12.759Z,0
2018-03-21T03:59:15.126Z,0
2018-03-21T04:00:18.081Z,0
2018-03-21T04:01:20.446Z,0
2018-03-21T04:02:22.806Z,0
2018-03-21T04:03:25.163Z,0
2018-03-21T04:04:27.524Z,0
2018-03-21T04:05:29.904Z,0
2018-03-21T04:06:32.266Z,0
2018-03-21T04:07:35.203Z,0
2018-03-21T04:08:37.572Z,0
2018-03-21T04:09:39.929Z,0
2018-03-21T04:10:42.305Z,0
2018-03-21T04:11:44.676Z,0
2018-03-21T04:12:47.305Z,0
2018-03-21T04:13:49.677Z,0
2018-03-21T04:14:52.049Z,0
2018-03-21T04:15:54.711Z,0
2018-03-21T04:16:57.085Z,0
2018-03-21T04:17:59.443Z,0
2018-03-21T04:19:01.804Z,0
2018-03-21T04:20:04.179Z,0
2018-03-21T04:21:06.537Z,0
2018-03-21T04:22:08.915Z,0
2018-03-21T04:23:11.617Z,0
2018-03-21T04:24:13.923Z,0
2018-03-21T04:25:16.300Z,0
2018-03-21T04:26:18.663Z,0
2018-03-21T04:27:21.337Z,0
2018-03-21T04:28:23.706Z,0
2018-03-21T04:29:26.062Z,0
2018-03-21T04:30:28.426Z,0
2018-03-21T04:31:30.798Z,0
2018-03-21T04:32:33.162Z,0
2018-03-21T04:33:35.525Z,0
2018-03-21T04:34:37.898Z,0
2018-03-21T04:35:40.251Z,0
2018-03-21T04:36:42.931Z,0
2018-03-21T04:37:45.294Z,0
2018-03-21T04:38:47.644Z,4
2018-03-21T04:39:50.011Z,4
2018-03-21T04:40:52.963Z,0
2018-03-21T04:41:55.328Z,0
2018-03-21T04:42:57.700Z,4
2018-03-21T04:44:00.055Z,0
2018-03-21T04:45:02.423Z,4
2018-03-21T04:46:05.084Z,0
2018-03-21T04:47:07.443Z,4
2018-03-21T04:48:10.091Z,4
2018-03-21T04:49:12.463Z,4
2018-03-21T04:50:14.818Z,8
2018-03-21T04:51:17.183Z,8
2018-03-21T04:52:19.856Z,12
2018-03-21T04:53:22.229Z,12
2018-03-21T04:54:24.884Z,16
2018-03-21T04:55:27.230Z,16
2018-03-21T04:56:29.893Z,20
2018-03-21T04:57:32.256Z,24
2018-03-21T04:58:34.629Z,28
2018-03-21T04:59:36.994Z,36
2018-03-21T05:00:39.352Z,40
2018-03-21T05:01:41.718Z,44
2018-03-21T05:02:44.090Z,52
2018-03-21T05:03:46.731Z,60
2018-03-21T05:04:49.388Z,68
2018-03-21T05:05:51.754Z,80
2018-03-21T05:06:54.397Z,88
2018-03-21T05:07:56.774Z,100
2018-03-21T05:08:59.137Z,112
2018-03-21T05:10:01.493Z,124
2018-03-21T05:11:04.456Z,140
2018-03-21T05:12:06.822Z,156
2018-03-21T05:13:09.192Z,168
2018-03-21T05:14:11.555Z,188
2018-03-21T05:15:13.919Z,204
2018-03-21T05:16:16.561Z,224
2018-03-21T05:17:18.940Z,240
2018-03-21T05:18:21.610Z,260
2018-03-21T05:19:23.970Z,284
2018-03-21T05:20:26.338Z,312
2018-03-21T05:21:28.704Z,340
2018-03-21T05:22:31.347Z,368
2018-03-21T05:23:34.301Z,396
2018-03-21T05:24:36.665Z,424
2018-03-21T05:25:39.031Z,452
2018-03-21T05:26:41.681Z,480
2018-03-21T05:27:44.357Z,508
2018-03-21T05:28:46.712Z,532
2018-03-21T05:29:49.072Z,564
2018-03-21T05:30:51.447Z,588
2018-03-21T05:31:53.806Z,612
2018-03-21T05:32:56.174Z,644
2018-03-21T05:33:58.826Z,672
2018-03-21T05:35:01.201Z,700
2018-03-21T05:36:03.838Z,736
2018-03-21T05:37:06.208Z,784
2018-03-21T05:38:08.863Z,836
2018-03-21T05:39:11.224Z,904
2018-03-21T05:40:13.597Z,968
2018-03-21T05:41:15.964Z,1040
2018-03-21T05:42:18.618Z,1112
2018-03-21T05:43:20.980Z,1184
2018-03-21T05:44:23.341Z,1260
2018-03-21T05:45:26.005Z,1328
2018-03-21T05:46:28.660Z,1400
2018-03-21T05:47:31.031Z,1476
2018-03-21T05:48:33.397Z,1540
2018-03-21T05:49:35.762Z,1608
2018-03-21T05:50:38.124Z,1676
2018-03-21T05:51:40.793Z,1732
2018-03-21T05:52:43.163Z,1792
2018-03-21T05:53:45.537Z,1860
2018-03-21T05:54:47.889Z,1928
2018-03-21T05:55:50.547Z,1988
2018-03-21T05:56:52.915Z,2048
2018-03-21T05:57:55.293Z,2108
2018-03-21T05:58:57.656Z,2168
2018-03-21T06:00:00.023Z,2224
2018-03-21T06:01:02.379Z,2264
2018-03-21T06:02:04.756Z,2304
2018-03-21T06:03:07.127Z,2360
2018-03-21T06:04:09.480Z,2424
2018-03-21T06:05:11.853Z,2500
2018-03-21T06:06:14.221Z,2576
2018-03-21T06:07:16.590Z,2652
2018-03-21T06:08:18.962Z,2728
2018-03-21T06:09:21.609Z,2804
2018-03-21T06:10:24.264Z,2876
2018-03-21T06:11:26.627Z,2936
2018-03-21T06:12:28.998Z,2988
2018-03-21T06:13:31.355Z,3028
2018-03-21T06:14:33.728Z,3048
2018-03-21T06:15:36.086Z,3064
2018-03-21T06:16:38.468Z,3080
2018-03-21T06:17:40.832Z,3100
2018-03-21T06:18:43.193Z,3144
2018-03-21T06:19:45.563Z,3208
2018-03-21T06:20:48.221Z,3288
2018-03-21T06:21:50.636Z,3392
2018-03-21T06:22:53.338Z,3524
2018-03-21T06:23:55.714Z,3660
2018-03-21T06:24:58.080Z,3800
2018-03-21T06:26:00.733Z,3920
2018-03-21T06:27:03.110Z,4020
2018-03-21T06:28:05.472Z,4100
2018-03-21T06:29:07.834Z,4172
2018-03-21T06:30:10.208Z,4240
2018-03-21T06:31:12.571Z,4340
2018-03-21T06:32:14.932Z,4436
2018-03-21T06:33:17.311Z,4524
2018-03-21T06:34:19.662Z,4608
2018-03-21T06:35:22.041Z,4660
2018-03-21T06:36:24.412Z,4704
2018-03-21T06:37:27.049Z,4764
2018-03-21T06:38:29.422Z,4848
2018-03-21T06:39:32.077Z,4908
2018-03-21T06:40:34.434Z,4900
2018-03-21T06:41:36.806Z,4848
2018-03-21T06:42:39.165Z,4792
2018-03-21T06:43:41.532Z,4752
2018-03-21T06:44:43.904Z,4752
2018-03-21T06:45:46.271Z,4772
2018-03-21T06:46:48.638Z,4816
2018-03-21T06:47:51.020Z,4892
2018-03-21T06:48:53.387Z,5008
2018-03-21T06:49:55.753Z,5152
2018-03-21T06:50:58.115Z,5316
2018-03-21T06:52:00.481Z,5516
2018-03-21T06:53:02.844Z,5748
2018-03-21T06:54:05.218Z,6000
2018-03-21T06:55:07.599Z,6236
2018-03-21T06:56:09.955Z,6412
2018-03-21T06:57:12.335Z,6584
2018-03-21T06:58:14.717Z,6764
2018-03-21T06:59:17.666Z,6952
2018-03-21T07:00:20.320Z,7160
2018-03-21T07:01:22.688Z,7396
2018-03-21T07:02:25.050Z,7632
2018-03-21T07:03:27.713Z,7840
2018-03-21T07:04:30.363Z,8048
2018-03-21T07:05:32.731Z,8268
2018-03-21T07:06:35.101Z,8476
2018-03-21T07:07:37.760Z,8648
2018-03-21T07:08:40.119Z,8808
2018-03-21T07:09:42.498Z,8952
2018-03-21T07:10:44.914Z,9076
2018-03-21T07:11:47.236Z,9208
2018-03-21T07:12:49.602Z,9380
2018-03-21T07:13:51.974Z,9564
2018-03-21T07:14:54.335Z,9752
2018-03-21T07:15:56.723Z,9984
2018-03-21T07:16:59.089Z,10200
2018-03-21T07:18:01.740Z,10380
2018-03-21T07:19:04.106Z,10516
2018-03-21T07:20:06.794Z,10640
2018-03-21T07:21:09.156Z,10728
2018-03-21T07:22:11.515Z,10812
2018-03-21T07:23:13.939Z,10860
2018-03-21T07:24:16.260Z,10896
2018-03-21T07:25:18.628Z,10952
2018-03-21T07:26:21.004Z,11032
2018-03-21T07:27:23.654Z,11084
2018-03-21T07:28:26.596Z,11116
2018-03-21T07:29:28.963Z,11164
2018-03-21T07:30:31.320Z,11256
2018-03-21T07:31:33.703Z,11440
2018-03-21T07:32:36.068Z,11616
2018-03-21T07:33:38.436Z,11804
2018-03-21T07:34:40.814Z,11948
2018-03-21T07:35:43.184Z,12016
2018-03-21T07:36:45.559Z,12068
2018-03-21T07:37:47.933Z,12200
2018-03-21T07:38:50.625Z,12304
2018-03-21T07:39:53.003Z,12384
2018-03-21T07:40:55.379Z,12496
2018-03-21T07:41:57.735Z,12680
2018-03-21T07:43:00.394Z,12916
2018-03-21T07:44:03.379Z,13144
2018-03-21T07:45:05.791Z,13564
2018-03-21T07:46:08.458Z,14212
2018-03-21T07:47:10.824Z,14880
2018-03-21T07:48:13.486Z,15568
2018-03-21T07:49:15.843Z,17036
2018-03-21T07:50:18.221Z,18976
2018-03-21T07:51:20.594Z,20448
2018-03-21T07:52:22.961Z,20896
2018-03-21T07:53:25.621Z,20768
2018-03-21T07:54:27.988Z,20576
2018-03-21T07:55:30.631Z,21632
2018-03-21T07:56:33.013Z,21696
2018-03-21T07:57:35.389Z,22112
2018-03-21T07:58:37.753Z,23776
2018-03-21T07:59:40.130Z,25344
2018-03-21T08:00:42.545Z,26880
2018-03-21T08:01:47.943Z,29536
2018-03-21T08:02:50.369Z,32192
2018-03-21T08:03:53.099Z,31968
2018-03-21T08:04:55.533Z,30848
2018-03-21T08:05:57.948Z,31104
2018-03-21T08:07:00.380Z,33664
2018-03-21T08:08:03.110Z,36448
2018-03-21T08:09:05.532Z,40512
2018-03-21T08:10:08.829Z,48864
2018-03-21T08:11:11.540Z,51296
2018-03-21T08:12:14.252Z,49632
2018-03-21T08:13:16.977Z,40256
2018-03-21T08:14:19.402Z,38528
2018-03-21T08:15:21.818Z,36896
2018-03-21T08:16:24.256Z,35200
2018-03-21T08:17:26.971Z,35008
2018-03-21T08:18:29.400Z,33408
2018-03-21T08:19:31.822Z,32096
2018-03-21T08:20:34.256Z,31360
2018-03-21T08:21:36.807Z,29600
2018-03-21T08:22:39.245Z,29248
2018-03-21T08:23:41.716Z,29568
2018-03-21T08:24:44.093Z,30720
2018-03-21T08:25:46.838Z,32096
2018-03-21T08:26:49.557Z,31776
2018-03-21T08:27:51.997Z,29952
2018-03-21T08:28:54.425Z,28800
2018-03-21T08:29:56.852Z,29408
2018-03-21T08:30:59.277Z,31744
2018-03-21T08:32:01.786Z,33248
2018-03-21T08:33:04.144Z,32096
2018-03-21T08:34:06.872Z,33248
2018-03-21T08:35:09.302Z,33760
2018-03-21T08:36:11.730Z,33216
2018-03-21T08:37:14.172Z,34048
2018-03-21T08:38:16.951Z,33632
2018-03-21T08:39:19.410Z,34432
2018-03-21T08:40:22.647Z,33632
2018-03-21T08:41:25.384Z,32128
2018-03-21T08:42:28.100Z,30528
2018-03-21T08:43:30.619Z,29664
2018-03-21T08:44:32.976Z,29888
2018-03-21T08:45:35.432Z,30112
2018-03-21T08:46:37.855Z,29792
2018-03-21T08:47:40.612Z,30080
2018-03-21T08:48:43.964Z,30752
2018-03-21T08:49:47.499Z,30912
2018-03-21T08:50:50.178Z,30752
2018-03-21T08:51:52.672Z,29792
2018-03-21T08:52:55.389Z,29152
2018-03-21T08:53:57.821Z,28832
2018-03-21T08:55:00.316Z,29024
2018-03-21T08:56:02.764Z,29920
2018-03-21T08:57:05.269Z,30208
2018-03-21T08:58:08.115Z,30304
2018-03-21T08:59:10.548Z,30592
2018-03-21T09:00:13.061Z,30816
2018-03-21T09:01:15.500Z,30592
2018-03-21T09:02:17.932Z,30368
2018-03-21T09:03:20.369Z,30112
2018-03-21T09:04:22.814Z,29024
2018-03-21T09:05:25.237Z,28544
2018-03-21T09:06:27.683Z,28704
2018-03-21T09:07:30.172Z,28800
2018-03-21T09:08:32.556Z,29248
2018-03-21T09:09:35.007Z,30144
2018-03-21T09:10:37.775Z,30400
2018-03-21T09:11:40.201Z,31584
2018-03-21T09:12:42.977Z,34656
2018-03-21T09:13:45.404Z,38528
2018-03-21T09:14:47.839Z,39072
2018-03-21T09:15:50.300Z,36800
2018-03-21T09:16:52.733Z,37408
2018-03-21T09:17:55.472Z,38880
2018-03-21T09:18:57.906Z,40320
2018-03-21T09:20:00.360Z,45536
2018-03-21T09:21:02.793Z,48352
2018-03-21T09:22:05.226Z,48800
2018-03-21T09:23:07.677Z,48576
2018-03-21T09:24:10.162Z,40800
2018-03-21T09:25:12.888Z,44224
2018-03-21T09:26:15.318Z,44640
2018-03-21T09:27:17.739Z,46688
2018-03-21T09:28:20.378Z,48800
2018-03-21T09:29:23.091Z,51104
2018-03-21T09:30:25.805Z,49856
2018-03-21T09:31:28.241Z,48192
2018-03-21T09:32:30.685Z,48416
2018-03-21T09:33:33.422Z,51744
2018-03-21T09:34:35.894Z,54496
2018-03-21T09:35:38.346Z,56768
2018-03-21T09:36:41.122Z,58176
2018-03-21T09:37:43.561Z,58944
2018-03-21T09:38:45.997Z,60160
2018-03-21T09:39:48.918Z,62016
2018-03-21T09:40:51.358Z,60640
2018-03-21T09:41:53.785Z,55168
2018-03-21T09:42:56.219Z,57312
2018-03-21T09:43:58.645Z,56000
2018-03-21T09:45:01.087Z,55264
2018-03-21T09:46:03.817Z,53120
2018-03-21T09:47:06.533Z,51040
2018-03-21T09:48:09.273Z,47648
2018-03-21T09:49:11.706Z,49216
2018-03-21T09:50:14.433Z,51552
2018-03-21T09:51:17.153Z,51136
2018-03-21T09:52:19.598Z,47648
2018-03-21T09:53:22.020Z,44480
2018-03-21T09:54:24.466Z,45472
2018-03-21T09:55:26.904Z,48864
2018-03-21T09:56:29.349Z,49376
2018-03-21T09:57:31.780Z,49472
2018-03-21T09:58:34.213Z,51840
2018-03-21T09:59:36.651Z,49824
2018-03-21T10:00:39.146Z,47968
2018-03-21T10:01:41.536Z,48640
2018-03-21T10:02:44.273Z,48416
2018-03-21T10:03:46.705Z,54496
2018-03-21T10:04:49.133Z,59552
2018-03-21T10:05:51.648Z,68352
2018-03-21T10:06:54.087Z,75744
2018-03-21T10:07:56.517Z,76000
2018-03-21T10:08:58.946Z,74144
2018-03-21T10:10:01.674Z,85696
2018-03-21T10:11:04.102Z,88928
2018-03-21T10:12:06.572Z,93760
2018-03-21T10:13:08.996Z,93280
2018-03-21T10:14:11.434Z,87744
2018-03-21T10:15:13.865Z,90528
2018-03-21T10:16:16.305Z,88384
2018-03-21T10:17:19.037Z,84352
2018-03-21T10:18:21.523Z,87680
2018-03-21T10:19:23.971Z,86656
2018-03-21T10:20:26.720Z,85248
2018-03-21T10:21:30.313Z,83200
2018-03-21T10:22:32.755Z,81280
2018-03-21T10:23:35.184Z,78144
2018-03-21T10:24:37.637Z,74400
2018-03-21T10:25:40.083Z,74816
2018-03-21T10:26:42.522Z,77472
2018-03-21T10:27:45.070Z,83776
2018-03-21T10:28:47.805Z,90272
2018-03-21T10:29:50.244Z,87936
2018-03-21T10:30:52.676Z,64960
2018-03-21T10:31:55.372Z,89440
2018-03-21T10:32:57.815Z,89504
2018-03-21T10:34:00.270Z,93888
2018-03-21T10:35:02.710Z,99616
2018-03-21T10:36:05.731Z,79520
2018-03-21T10:37:08.179Z,58528
2018-03-21T10:38:10.897Z,72064
2018-03-21T10:39:13.354Z,105856
2018-03-21T10:40:15.787Z,100704
2018-03-21T10:41:18.231Z,97312
2018-03-21T10:42:20.664Z,101280
2018-03-21T10:43:23.118Z,97376
2018-03-21T10:44:25.662Z,88512
2018-03-21T10:45:27.993Z,84896
2018-03-21T10:46:30.444Z,68672
2018-03-21T10:47:32.889Z,89920
2018-03-21T10:48:35.603Z,60480
2018-03-21T10:49:38.057Z,99936
2018-03-21T10:50:40.778Z,108288
2018-03-21T10:51:43.226Z,104672
2018-03-21T10:52:45.659Z,106752
2018-03-21T10:53:48.450Z,113216
2018-03-21T10:54:50.888Z,113824
2018-03-21T10:55:53.628Z,95936
2018-03-21T10:56:56.365Z,100224
2018-03-21T10:57:58.801Z,94560
2018-03-21T10:59:01.256Z,81312
2018-03-21T11:00:03.692Z,96000
2018-03-21T11:01:06.126Z,79936
2018-03-21T11:02:08.578Z,53056
2018-03-21T11:03:11.019Z,45216
2018-03-21T11:04:13.759Z,41664
2018-03-21T11:05:16.207Z,37600
2018-03-21T11:06:18.646Z,36800
2018-03-21T11:07:21.374Z,36064
2018-03-21T11:08:24.124Z,36928
2018-03-21T11:09:26.841Z,38208
2018-03-21T11:10:29.590Z,48512
2018-03-21T11:11:32.011Z,46624
2018-03-21T11:12:34.453Z,56640
2018-03-21T11:13:36.909Z,43968
2018-03-21T11:14:39.339Z,44768
2018-03-21T11:15:41.774Z,38368
2018-03-21T11:16:44.508Z,39616
2018-03-21T11:17:47.531Z,39296
2018-03-21T11:18:49.977Z,36576
2018-03-21T11:19:52.406Z,33440
2018-03-21T11:20:54.841Z,32416
2018-03-21T11:21:57.286Z,37568
2018-03-21T11:22:59.725Z,37696
2018-03-21T11:24:02.180Z,42560
2018-03-21T11:25:04.611Z,53696
2018-03-21T11:26:07.057Z,54176
2018-03-21T11:27:09.489Z,47168
2018-03-21T11:28:11.929Z,53664
2018-03-21T11:29:14.367Z,54880
2018-03-21T11:30:16.804Z,81024
2018-03-21T11:31:19.828Z,54432
2018-03-21T11:32:22.258Z,56384
2018-03-21T11:33:24.836Z,45632
2018-03-21T11:34:27.565Z,41856
2018-03-21T11:35:30.028Z,44256
2018-03-21T11:36:32.800Z,54016
2018-03-21T11:37:35.238Z,62336
2018-03-21T11:38:37.965Z,48896
2018-03-21T11:39:40.398Z,48608
2018-03-21T11:40:42.852Z,56576
2018-03-21T11:41:45.278Z,55296
2018-03-21T11:42:47.727Z,54336
2018-03-21T11:43:50.163Z,52544
2018-03-21T11:44:52.596Z,64064
2018-03-21T11:45:55.625Z,73472
2018-03-21T11:46:58.157Z,81152
2018-03-21T11:48:00.592Z,75296
2018-03-21T11:49:03.368Z,61152
2018-03-21T11:50:05.802Z,47296
2018-03-21T11:51:08.245Z,42624
2018-03-21T11:52:10.738Z,40864
2018-03-21T11:53:13.175Z,38016
2018-03-21T11:54:15.608Z,35392
2018-03-21T11:55:18.053Z,34848
2018-03-21T11:56:20.586Z,33632
2018-03-21T11:57:23.570Z,32544
2018-03-21T11:58:26.008Z,30112
2018-03-21T11:59:28.456Z,26784
2018-03-21T12:00:30.886Z,23648
2018-03-21T12:01:33.319Z,21568
2018-03-21T12:02:36.054Z,20288
2018-03-21T12:03:38.792Z,19936
2018-03-21T12:04:41.230Z,20224
2018-03-21T12:05:43.675Z,20384
2018-03-21T12:06:46.108Z,20064
2018-03-21T12:07:48.652Z,19552
2018-03-21T12:08:51.090Z,18560
2018-03-21T12:09:53.521Z,17488
2018-03-21T12:10:55.950Z,17092
2018-03-21T12:11:58.697Z,16744
2018-03-21T12:13:01.499Z,16624
2018-03-21T12:14:03.935Z,17496
2018-03-21T12:15:06.377Z,19040
2018-03-21T12:16:08.829Z,19424
2018-03-21T12:17:11.557Z,17868
2018-03-21T12:18:14.274Z,16604
2018-03-21T12:19:16.716Z,16304
2018-03-21T12:20:19.173Z,16424
2018-03-21T12:21:21.610Z,16216
2018-03-21T12:22:24.052Z,14840
2018-03-21T12:23:26.489Z,12908
2018-03-21T12:24:29.029Z,13232
2018-03-21T12:25:31.481Z,14840
2018-03-21T12:26:34.488Z,15124
2018-03-21T12:27:36.925Z,14916
2018-03-21T12:28:39.649Z,14580
2018-03-21T12:29:42.070Z,15152
2018-03-21T12:30:44.535Z,15452
2018-03-21T12:31:47.288Z,15128
2018-03-21T12:32:49.755Z,15324
2018-03-21T12:33:52.144Z,15084
2018-03-21T12:34:54.583Z,15272
2018-03-21T12:35:57.019Z,15392
2018-03-21T12:36:59.762Z,15168
2018-03-21T12:38:02.192Z,15496
2018-03-21T12:39:04.620Z,15604
2018-03-21T12:40:07.067Z,15788
2018-03-21T12:41:09.777Z,16264
2018-03-21T12:42:12.210Z,16696
2018-03-21T12:43:14.644Z,16660
2018-03-21T12:44:17.087Z,16468
2018-03-21T12:45:19.591Z,14860
2018-03-21T12:46:22.023Z,13108
2018-03-21T12:47:24.458Z,12580
2018-03-21T12:48:27.183Z,12260
2018-03-21T12:49:29.896Z,12932
2018-03-21T12:50:32.637Z,13800
2018-03-21T12:51:35.059Z,14700
2018-03-21T12:52:37.493Z,14820
2018-03-21T12:53:40.089Z,14220
2018-03-21T12:54:42.825Z,14252
2018-03-21T12:55:46.427Z,15388
2018-03-21T12:56:49.323Z,17176
2018-03-21T12:57:51.753Z,18784
2018-03-21T12:58:54.190Z,21472
2018-03-21T12:59:56.624Z,25632
2018-03-21T13:00:59.065Z,26624
2018-03-21T13:02:01.503Z,26528
2018-03-21T13:03:04.884Z,25696
2018-03-21T13:04:09.285Z,24384
2018-03-21T13:05:12.622Z,23392
2018-03-21T13:06:15.647Z,23040
2018-03-21T13:07:18.592Z,22528
2018-03-21T13:08:21.253Z,22208
2018-03-21T13:09:23.814Z,23072
2018-03-21T13:10:26.284Z,25216
2018-03-21T13:11:28.733Z,29408
2018-03-21T13:12:31.271Z,31392
2018-03-21T13:13:33.980Z,28320
2018-03-21T13:14:36.361Z,23776
2018-03-21T13:15:38.805Z,21344
2018-03-21T13:16:41.649Z,19232
2018-03-21T13:17:44.451Z,18848
2018-03-21T13:18:46.889Z,18848
2018-03-21T13:19:49.339Z,18128
2018-03-21T13:20:51.870Z,18464
2018-03-21T13:21:54.529Z,18172
2018-03-21T13:22:57.074Z,18848
2018-03-21T13:24:00.206Z,19296
2018-03-21T13:25:03.002Z,19264
2018-03-21T13:26:06.252Z,18976
2018-03-21T13:27:08.917Z,17768
2018-03-21T13:28:11.720Z,16452
2018-03-21T13:29:14.227Z,15472
2018-03-21T13:30:16.672Z,14500
2018-03-21T13:31:19.126Z,13784
2018-03-21T13:32:21.952Z,13412
2018-03-21T13:33:25.042Z,13088
2018-03-21T13:34:28.227Z,12712
2018-03-21T13:35:32.078Z,12244
2018-03-21T13:36:34.895Z,12288
2018-03-21T13:37:37.739Z,12736
2018-03-21T13:38:40.329Z,13052
2018-03-21T13:39:42.880Z,13064
2018-03-21T13:40:45.320Z,12516
2018-03-21T13:41:47.750Z,12068
2018-03-21T13:42:50.365Z,12188
2018-03-21T13:43:53.122Z,12512
2018-03-21T13:44:55.551Z,12388
2018-03-21T13:45:58.034Z,11524
2018-03-21T13:47:00.727Z,10636
2018-03-21T13:48:03.472Z,10044
2018-03-21T13:49:06.106Z,8820
2018-03-21T13:50:08.845Z,7760
2018-03-21T13:51:11.454Z,7460
2018-03-21T13:52:13.884Z,7700
2018-03-21T13:53:16.329Z,7628
2018-03-21T13:54:18.781Z,7096
2018-03-21T13:55:21.490Z,7112
2018-03-21T13:56:23.938Z,7084
2018-03-21T13:57:26.476Z,6472
2018-03-21T13:58:28.889Z,5964
2018-03-21T13:59:31.323Z,5676
2018-03-21T14:00:33.755Z,4988
2018-03-21T14:01:36.188Z,4496
2018-03-21T14:02:38.921Z,4480
2018-03-21T14:03:41.648Z,4724
2018-03-21T14:04:44.092Z,5160
2018-03-21T14:05:46.645Z,6024
2018-03-21T14:06:49.410Z,7468
2018-03-21T14:07:51.987Z,7688
2018-03-21T14:08:55.353Z,6864
2018-03-21T14:09:57.903Z,5744